Terminal Aerodrome Forecast
Issued by NWS Sterling, VA

Home | Current Version | Previous Version | Text Only | Print | Product List | Glossary On
Versions: 1 2 3 4 5 6 7 8 9 10 11
000
FTUS41 KLWX 012300
TAFMRB
TAF
KMRB 012340Z 0200/0224 16006KT P6SM SKC
     FM020300 15004KT P6SM SCT020 OVC030
     FM020400 VRB03KT P6SM OVC020
     FM020800 00000KT P6SM SCT008 OVC010
     FM021400 05004KT P6SM OVC015
     FM021700 07005KT P6SM SCT015 OVC040=

USA.gov is the U.S. government's official web portal to all federal, state and local government web resources and services.